Time;durP1;ratioP1;P1;durP2;ratioP2;P2;SDS_P1;SDS_P2;PMS_P1;PMS_P2;Temp;Humidity;BMP_temperature;BMP_pressure;BME280_temperature;BME280_humidity;BME280_pressure;Samples;Min_cycle;Max_cycle;Signal;HPM_P1;HPM_P2
2023/05/04 00:01:49;;;;;;;9.00;4.65;;;8.10;99.90;;;;;;5060569;28;20028;-61
2023/05/04 00:04:15;;;;;;;8.90;5.65;;;8.10;99.90;;;;;;5067668;28;20037;-64
2023/05/04 00:06:40;;;;;;;13.32;4.82;;;8.20;99.90;;;;;;5056010;28;20115;-62
2023/05/04 00:09:06;;;;;;;9.38;4.47;;;8.20;99.90;;;;;;5064276;28;20564;-57
2023/05/04 00:11:32;;;;;;;16.15;4.93;;;8.20;99.90;;;;;;5060397;28;20032;-60
2023/05/04 00:13:58;;;;;;;12.20;4.50;;;8.10;99.90;;;;;;5060375;28;20035;-61
2023/05/04 00:16:23;;;;;;;14.82;5.75;;;8.20;99.90;;;;;;5058270;28;20407;-62
2023/05/04 00:18:49;;;;;;;7.30;3.83;;;8.10;99.90;;;;;;5066882;28;20153;-60
2023/05/04 00:21:15;;;;;;;13.18;4.25;;;8.00;99.90;;;;;;5068159;28;20029;-61
2023/05/04 00:23:40;;;;;;;7.78;4.15;;;8.00;99.90;;;;;;5066433;28;20028;-60
2023/05/04 00:26:06;;;;;;;7.65;4.20;;;8.10;99.90;;;;;;5060322;28;20029;-63
2023/05/04 00:28:31;;;;;;;11.10;4.50;;;8.00;99.90;;;;;;5060116;28;20025;-61
2023/05/04 00:30:57;;;;;;;10.68;4.60;;;8.10;99.90;;;;;;5064948;28;20492;-59
2023/05/04 00:33:22;;;;;;;13.73;5.28;;;8.10;99.90;;;;;;5065490;28;20021;-57
2023/05/04 00:35:49;;;;;;;7.85;3.63;;;8.10;99.90;;;;;;5066022;28;20171;-61
2023/05/04 00:38:15;;;;;;;6.07;3.47;;;8.10;99.90;;;;;;5065617;28;20052;-65
2023/05/04 00:40:41;;;;;;;9.45;3.78;;;8.20;99.90;;;;;;5064432;28;20106;-61
2023/05/04 00:43:07;;;;;;;10.85;4.03;;;8.20;99.90;;;;;;5068947;28;20063;-60
2023/05/04 00:45:33;;;;;;;7.00;3.47;;;8.20;99.90;;;;;;5060269;28;20028;-62
2023/05/04 00:47:59;;;;;;;17.25;4.18;;;8.20;99.90;;;;;;5064842;28;20086;-61
2023/05/04 00:50:26;;;;;;;11.48;3.97;;;8.20;99.90;;;;;;5059164;28;21924;-58
2023/05/04 00:52:54;;;;;;;6.53;3.90;;;8.10;99.90;;;;;;5057500;28;20021;-56
2023/05/04 00:55:20;;;;;;;11.82;4.25;;;8.10;99.90;;;;;;5057148;28;20032;-65
2023/05/04 00:57:48;;;;;;;8.20;5.10;;;8.00;99.90;;;;;;5058073;28;20033;-66
2023/05/04 01:00:13;;;;;;;8.15;3.85;;;7.90;99.90;;;;;;5059965;28;20040;-62
2023/05/04 01:02:41;;;;;;;11.88;4.43;;;7.90;99.90;;;;;;5068012;28;21965;-62
2023/05/04 01:05:07;;;;;;;8.52;4.10;;;7.80;99.90;;;;;;5057600;28;20029;-62
2023/05/04 01:07:57;;;;;;;10.40;4.03;;;7.80;99.90;;;;;;5059653;28;20480;-62
2023/05/04 01:10:33;;;;;;;10.60;3.72;;;7.70;99.90;;;;;;5061151;28;20086;-58
2023/05/04 01:13:09;;;;;;;7.78;3.72;;;7.70;99.90;;;;;;5070399;28;20089;-62
2023/05/04 01:15:35;;;;;;;6.78;3.42;;;7.70;99.90;;;;;;5060964;28;20012;-62
2023/05/04 01:18:02;;;;;;;7.45;3.75;;;7.60;99.90;;;;;;5060966;28;20576;-61
2023/05/04 01:20:27;;;;;;;10.93;3.47;;;7.60;99.90;;;;;;5058173;28;20047;-63
2023/05/04 01:22:53;;;;;;;10.25;4.10;;;7.50;99.90;;;;;;5068282;28;20516;-59
2023/05/04 01:25:19;;;;;;;6.53;3.53;;;7.50;99.90;;;;;;5060722;28;20032;-61
2023/05/04 01:27:46;;;;;;;9.80;4.03;;;7.50;99.90;;;;;;5067586;28;20369;-58
2023/05/04 01:30:31;;;;;;;7.03;3.55;;;7.40;99.90;;;;;;5061781;28;20033;-62
2023/05/04 01:33:01;;;;;;;7.25;3.47;;;7.30;99.90;;;;;;5061621;28;20517;-62
2023/05/04 01:35:26;;;;;;;13.20;3.92;;;7.30;99.90;;;;;;5062930;28;20028;-63
2023/05/04 01:37:52;;;;;;;6.80;3.58;;;7.30;99.90;;;;;;5059844;28;20396;-64
2023/05/04 01:40:18;;;;;;;7.03;3.38;;;7.20;99.90;;;;;;5058647;28;21125;-62
2023/05/04 01:42:43;;;;;;;8.32;4.50;;;7.10;99.90;;;;;;5060949;28;20033;-65
2023/05/04 01:45:09;;;;;;;10.30;3.58;;;7.00;99.90;;;;;;5060002;28;20036;-60
2023/05/04 01:47:35;;;;;;;5.28;3.95;;;7.00;99.90;;;;;;5064618;28;20810;-62
2023/05/04 01:50:01;;;;;;;12.95;4.20;;;6.90;99.90;;;;;;5061400;28;20040;-60
2023/05/04 01:52:26;;;;;;;10.25;3.70;;;6.90;99.90;;;;;;5061508;28;20494;-60
2023/05/04 01:54:52;;;;;;;8.75;4.60;;;6.90;99.90;;;;;;5059549;28;20039;-64
2023/05/04 01:57:17;;;;;;;11.05;4.32;;;6.80;99.90;;;;;;5056743;28;20067;-63
2023/05/04 01:59:43;;;;;;;8.93;4.43;;;6.90;99.90;;;;;;5061828;28;20052;-62
2023/05/04 02:02:08;;;;;;;6.30;3.75;;;6.90;99.90;;;;;;5058666;28;20049;-62
2023/05/04 02:04:34;;;;;;;10.25;4.32;;;6.90;99.90;;;;;;5064017;28;20032;-62
2023/05/04 02:06:59;;;;;;;9.68;3.75;;;7.00;99.90;;;;;;5069176;28;20074;-61
2023/05/04 02:09:25;;;;;;;8.52;3.85;;;7.00;99.90;;;;;;5068273;28;20021;-62
2023/05/04 02:11:51;;;;;;;11.93;4.25;;;7.10;99.90;;;;;;5066196;28;20391;-60
2023/05/04 02:14:16;;;;;;;9.05;3.60;;;7.10;99.90;;;;;;5068951;28;20373;-61
2023/05/04 02:16:42;;;;;;;8.75;3.22;;;7.20;99.90;;;;;;5069982;28;20048;-62
2023/05/04 02:19:07;;;;;;;6.13;3.38;;;7.20;99.90;;;;;;5058750;28;20035;-60
2023/05/04 02:21:33;;;;;;;7.47;3.60;;;7.20;99.90;;;;;;5055505;28;20029;-61
2023/05/04 02:23:59;;;;;;;6.70;3.50;;;7.20;99.90;;;;;;5070946;28;20090;-62
2023/05/04 02:26:24;;;;;;;6.00;3.60;;;7.20;99.90;;;;;;5067341;28;20024;-61
2023/05/04 02:28:50;;;;;;;11.50;3.70;;;7.20;99.90;;;;;;5066039;28;20399;-64
2023/05/04 02:31:15;;;;;;;6.22;3.67;;;7.20;99.90;;;;;;5065541;28;20036;-62
2023/05/04 02:33:41;;;;;;;16.70;4.40;;;7.20;99.90;;;;;;5068364;28;20032;-60
2023/05/04 02:36:06;;;;;;;10.77;4.30;;;7.20;99.90;;;;;;5069603;28;20032;-61
2023/05/04 02:38:32;;;;;;;13.85;4.65;;;7.10;99.90;;;;;;5065086;28;20610;-60
2023/05/04 02:40:57;;;;;;;6.80;3.83;;;7.00;99.90;;;;;;5065715;28;20043;-62
2023/05/04 02:43:23;;;;;;;8.73;3.72;;;7.00;99.90;;;;;;5064413;28;20097;-63
2023/05/04 02:45:49;;;;;;;9.52;3.97;;;7.00;99.90;;;;;;5066274;28;20028;-62
2023/05/04 02:48:14;;;;;;;8.90;3.80;;;6.90;99.90;;;;;;5066348;28;20029;-60
2023/05/04 02:50:40;;;;;;;13.50;4.18;;;6.90;99.90;;;;;;5057419;28;20127;-56
2023/05/04 02:53:05;;;;;;;6.43;3.67;;;6.90;99.90;;;;;;5063770;28;20035;-62
2023/05/04 02:55:31;;;;;;;8.18;3.55;;;6.90;99.90;;;;;;5066425;28;20033;-63
2023/05/04 02:57:57;;;;;;;5.63;3.90;;;6.90;99.90;;;;;;5066734;28;21299;-62
2023/05/04 03:00:22;;;;;;;6.95;3.55;;;6.90;99.90;;;;;;5065643;28;20543;-62
2023/05/04 03:02:48;;;;;;;10.23;4.25;;;6.90;99.90;;;;;;5064446;28;20130;-63
2023/05/04 03:05:14;;;;;;;8.50;3.78;;;6.90;99.90;;;;;;5063340;28;20020;-62
2023/05/04 03:07:39;;;;;;;8.77;3.78;;;6.90;99.90;;;;;;5065340;28;20514;-60
2023/05/04 03:10:07;;;;;;;6.82;3.60;;;7.00;99.90;;;;;;5066813;28;20020;-62
2023/05/04 03:12:33;;;;;;;7.72;3.75;;;7.10;99.90;;;;;;5064427;28;20028;-60
2023/05/04 03:14:58;;;;;;;13.32;3.78;;;7.10;99.90;;;;;;5059743;28;20089;-62
2023/05/04 03:17:24;;;;;;;5.82;3.42;;;7.20;99.90;;;;;;5060050;28;20476;-60
2023/05/04 03:19:49;;;;;;;6.38;3.00;;;7.20;99.90;;;;;;5059470;28;20033;-61
2023/05/04 03:22:15;;;;;;;7.15;3.33;;;7.30;99.90;;;;;;5061858;28;20492;-61
2023/05/04 03:24:40;;;;;;;5.88;3.33;;;7.40;99.90;;;;;;5059097;28;20112;-66
2023/05/04 03:27:06;;;;;;;6.82;3.25;;;7.40;99.90;;;;;;5060052;28;20027;-60
2023/05/04 03:29:31;;;;;;;10.90;2.83;;;7.50;99.90;;;;;;5062932;28;20035;-61
2023/05/04 03:31:57;;;;;;;4.85;2.88;;;7.50;99.90;;;;;;5061246;28;20040;-61
2023/05/04 03:34:22;;;;;;;6.68;3.15;;;7.50;99.90;;;;;;5068419;28;20032;-59
2023/05/04 03:36:48;;;;;;;10.10;3.55;;;7.60;99.90;;;;;;5060918;28;20566;-61
2023/05/04 03:39:18;;;;;;;10.23;3.33;;;7.60;99.90;;;;;;5058045;28;20452;-58
2023/05/04 03:41:43;;;;;;;7.07;3.13;;;7.60;99.90;;;;;;5063947;28;20020;-56
2023/05/04 03:44:09;;;;;;;13.13;2.65;;;7.60;99.90;;;;;;5064921;28;20032;-59
2023/05/04 03:46:34;;;;;;;6.10;2.85;;;7.50;99.90;;;;;;5067507;28;20143;-62
2023/05/04 03:49:00;;;;;;;5.78;2.92;;;7.50;99.90;;;;;;5066989;28;20040;-65
2023/05/04 03:51:25;;;;;;;6.18;3.22;;;7.50;99.90;;;;;;5062607;28;20107;-61
2023/05/04 03:53:51;;;;;;;8.50;2.80;;;7.50;99.90;;;;;;5060136;28;20047;-56
2023/05/04 03:56:16;;;;;;;5.88;3.25;;;7.40;99.90;;;;;;5059571;28;20032;-60
2023/05/04 03:58:42;;;;;;;5.55;3.28;;;7.30;99.90;;;;;;5058226;28;20132;-60
2023/05/04 04:01:07;;;;;;;8.57;3.28;;;7.40;99.90;;;;;;5057679;28;20032;-60
2023/05/04 04:03:35;;;;;;;5.25;3.15;;;7.40;99.90;;;;;;5066686;28;20027;-62
2023/05/04 04:06:02;;;;;;;5.10;2.83;;;7.40;99.90;;;;;;5061500;28;20028;-59
2023/05/04 04:08:28;;;;;;;7.43;3.15;;;7.40;99.90;;;;;;5065557;28;20103;-56
2023/05/04 04:10:53;;;;;;;6.50;3.10;;;7.40;99.90;;;;;;5058881;28;20119;-60
2023/05/04 04:13:19;;;;;;;9.73;3.65;;;7.40;99.90;;;;;;5069529;28;20391;-64
2023/05/04 04:15:45;;;;;;;6.65;3.45;;;7.30;99.90;;;;;;5055905;28;20123;-58
2023/05/04 04:18:11;;;;;;;6.50;3.03;;;7.40;99.90;;;;;;5065787;28;20484;-58
2023/05/04 04:20:37;;;;;;;5.78;3.13;;;7.40;99.90;;;;;;5064817;28;20081;-61
2023/05/04 04:23:03;;;;;;;11.27;3.10;;;7.30;99.90;;;;;;5066773;28;21963;-60
2023/05/04 04:25:29;;;;;;;5.47;3.10;;;7.30;99.90;;;;;;5061877;28;20434;-60
2023/05/04 04:27:54;;;;;;;5.38;2.95;;;7.30;99.90;;;;;;5063918;28;20036;-61
2023/05/04 04:30:20;;;;;;;12.00;3.40;;;7.30;99.90;;;;;;5069906;28;20032;-57
2023/05/04 04:32:46;;;;;;;8.55;3.05;;;7.30;99.90;;;;;;5066672;28;20037;-59
2023/05/04 04:35:13;;;;;;;10.75;2.85;;;7.30;99.90;;;;;;5073555;28;20491;-62
2023/05/04 04:37:38;;;;;;;5.93;2.90;;;7.30;99.90;;;;;;5072275;28;20033;-59
2023/05/04 04:40:06;;;;;;;10.38;3.10;;;7.20;99.90;;;;;;5073776;28;20036;-57
2023/05/04 04:42:32;;;;;;;4.20;2.80;;;7.30;99.90;;;;;;5067360;28;20192;-60
2023/05/04 04:44:58;;;;;;;5.63;3.22;;;7.30;99.90;;;;;;5071886;28;20032;-61
2023/05/04 04:47:24;;;;;;;10.27;4.28;;;7.30;99.90;;;;;;5072093;28;20085;-58
2023/05/04 04:49:49;;;;;;;7.13;3.53;;;7.40;99.90;;;;;;5061762;28;20038;-60
2023/05/04 04:52:16;;;;;;;9.48;3.35;;;7.40;99.90;;;;;;5056838;28;20028;-59
2023/05/04 04:54:42;;;;;;;10.07;3.40;;;7.50;99.90;;;;;;5068514;28;20029;-56
2023/05/04 04:57:08;;;;;;;4.97;3.00;;;7.50;99.90;;;;;;5064420;28;20024;-59
2023/05/04 04:59:34;;;;;;;6.47;3.38;;;7.60;99.90;;;;;;5063315;28;20021;-59
2023/05/04 05:02:00;;;;;;;9.02;3.88;;;7.70;99.90;;;;;;5064216;28;20040;-57
2023/05/04 05:04:26;;;;;;;10.07;3.92;;;7.70;99.90;;;;;;5067583;28;20488;-57
2023/05/04 05:06:52;;;;;;;6.43;3.30;;;7.80;99.90;;;;;;5076085;28;20032;-57
2023/05/04 05:09:18;;;;;;;6.47;3.60;;;7.70;99.90;;;;;;5064881;28;20420;-60
2023/05/04 05:11:44;;;;;;;4.03;3.25;;;7.80;99.90;;;;;;5064186;28;20035;-58
2023/05/04 05:14:09;;;;;;;8.63;3.25;;;7.80;99.90;;;;;;5060638;28;20024;-56
2023/05/04 05:16:35;;;;;;;9.27;4.00;;;7.90;99.90;;;;;;5072742;28;20036;-57
2023/05/04 05:19:00;;;;;;;9.32;3.90;;;8.00;99.90;;;;;;5062569;28;20020;-56
2023/05/04 05:21:26;;;;;;;14.30;3.58;;;8.00;99.90;;;;;;5062724;28;20045;-56
2023/05/04 05:23:52;;;;;;;6.63;3.85;;;8.20;99.90;;;;;;5059179;28;20048;-56
2023/05/04 05:26:17;;;;;;;11.80;3.85;;;8.30;99.90;;;;;;5062908;28;20124;-58
2023/05/04 05:28:43;;;;;;;9.80;3.28;;;8.40;99.90;;;;;;5062264;28;20037;-59
2023/05/04 05:31:09;;;;;;;12.55;4.20;;;8.50;99.90;;;;;;5063744;28;20384;-56
2023/05/04 05:33:34;;;;;;;6.95;3.97;;;8.60;99.90;;;;;;5069419;28;20012;-57
2023/05/04 05:36:00;;;;;;;6.07;3.28;;;8.70;99.90;;;;;;5070133;28;20403;-54
2023/05/04 05:38:25;;;;;;;5.70;3.40;;;8.90;99.90;;;;;;5069047;28;20460;-55
2023/05/04 05:40:51;;;;;;;8.38;4.78;;;9.00;99.90;;;;;;5068407;28;20033;-56
2023/05/04 05:43:16;;;;;;;8.35;3.40;;;9.10;99.90;;;;;;5072219;28;20036;-57
2023/05/04 05:45:42;;;;;;;6.10;3.28;;;9.20;99.90;;;;;;5069865;28;20115;-54
2023/05/04 05:48:07;;;;;;;7.30;3.20;;;9.40;99.90;;;;;;5070630;28;20058;-59
2023/05/04 05:50:33;;;;;;;5.82;2.83;;;9.50;99.90;;;;;;5077496;28;20033;-54
2023/05/04 05:52:59;;;;;;;5.53;2.70;;;9.60;99.90;;;;;;5076782;28;20078;-59
2023/05/04 05:55:24;;;;;;;7.43;2.47;;;9.70;99.90;;;;;;5074260;28;20102;-58
2023/05/04 05:57:50;;;;;;;6.72;3.22;;;9.80;99.90;;;;;;5067075;28;20028;-57
2023/05/04 06:00:16;;;;;;;9.07;2.65;;;9.90;99.90;;;;;;5073793;28;20030;-56
2023/05/04 06:02:42;;;;;;;11.85;3.28;;;10.00;99.90;;;;;;5071075;28;20034;-54
2023/05/04 06:05:09;;;;;;;5.93;2.92;;;10.10;99.90;;;;;;5073568;28;20107;-53
2023/05/04 06:07:34;;;;;;;7.15;3.15;;;10.10;99.90;;;;;;5076783;28;20024;-54
2023/05/04 06:10:00;;;;;;;10.18;3.22;;;10.20;99.90;;;;;;5071134;28;20059;-60
2023/05/04 06:12:25;;;;;;;11.02;2.80;;;10.20;99.90;;;;;;5070140;28;20025;-57
2023/05/04 06:14:51;;;;;;;5.45;2.70;;;10.30;99.90;;;;;;5069849;28;20027;-59
2023/05/04 06:17:17;;;;;;;8.15;2.72;;;10.30;99.90;;;;;;5069590;28;20028;-55
2023/05/04 06:19:44;;;;;;;9.00;2.58;;;10.40;99.90;;;;;;5068551;28;20074;-57
2023/05/04 06:22:10;;;;;;;8.60;3.47;;;10.40;99.90;;;;;;5070179;28;20388;-59
2023/05/04 06:24:35;;;;;;;8.48;3.05;;;10.50;99.90;;;;;;5069456;28;20039;-54
2023/05/04 06:27:01;;;;;;;9.25;3.08;;;10.50;99.90;;;;;;5070757;28;20087;-59
2023/05/04 06:29:26;;;;;;;14.85;3.80;;;10.60;99.90;;;;;;5070238;28;20579;-57
2023/05/04 06:31:52;;;;;;;8.32;3.10;;;10.70;99.90;;;;;;5075531;28;20107;-58
2023/05/04 06:34:18;;;;;;;4.80;3.05;;;10.70;99.90;;;;;;5071054;28;20020;-58
2023/05/04 06:36:44;;;;;;;6.43;2.70;;;10.90;99.90;;;;;;5070279;28;20036;-61
2023/05/04 06:39:09;;;;;;;6.55;2.72;;;11.00;99.90;;;;;;5070457;28;20052;-58
2023/05/04 06:41:36;;;;;;;5.82;2.95;;;11.00;99.90;;;;;;5080407;28;20062;-57
2023/05/04 06:44:05;;;;;;;4.45;2.72;;;11.10;99.90;;;;;;5077958;28;20029;-58
2023/05/04 06:46:33;;;;;;;11.38;3.20;;;11.20;99.90;;;;;;5070641;28;20491;-56
2023/05/04 06:48:59;;;;;;;12.10;3.00;;;11.30;99.90;;;;;;5068720;28;20404;-55
2023/05/04 06:51:24;;;;;;;4.32;3.50;;;11.30;99.90;;;;;;5077791;28;20024;-59
2023/05/04 06:53:50;;;;;;;3.38;2.30;;;11.40;99.90;;;;;;5073111;28;20519;-58
2023/05/04 06:56:15;;;;;;;6.82;3.17;;;11.50;99.90;;;;;;5072471;28;20048;-57
2023/05/04 06:58:41;;;;;;;9.20;3.45;;;11.60;99.90;;;;;;5075141;28;20056;-57
2023/05/04 07:01:10;;;;;;;12.73;3.30;;;11.70;99.90;;;;;;5069548;28;20025;-60
2023/05/04 07:03:35;;;;;;;6.43;2.78;;;11.80;99.90;;;;;;5067652;28;20095;-57
2023/05/04 07:06:01;;;;;;;13.85;2.85;;;11.80;99.90;;;;;;5072190;28;20244;-56
2023/05/04 07:08:26;;;;;;;10.85;3.17;;;11.90;99.90;;;;;;5070367;28;20044;-56
2023/05/04 07:10:52;;;;;;;8.75;3.10;;;12.00;99.90;;;;;;5068898;28;20025;-54
2023/05/04 07:13:18;;;;;;;4.68;2.80;;;12.00;99.90;;;;;;5069461;28;20028;-57
2023/05/04 07:15:44;;;;;;;6.75;2.75;;;12.10;99.90;;;;;;5071244;28;20023;-56
2023/05/04 07:18:09;;;;;;;9.50;2.53;;;12.20;99.90;;;;;;5068575;28;20017;-56
2023/05/04 07:20:35;;;;;;;6.20;3.40;;;12.30;99.90;;;;;;5072969;28;20392;-57
2023/05/04 07:23:01;;;;;;;12.90;3.10;;;12.30;99.90;;;;;;5067509;28;20146;-55
2023/05/04 07:25:27;;;;;;;5.53;2.75;;;12.40;99.90;;;;;;5067569;28;20036;-56
2023/05/04 07:27:53;;;;;;;4.93;2.78;;;12.60;99.90;;;;;;5068269;28;20086;-54
2023/05/04 07:30:19;;;;;;;9.52;3.35;;;12.70;99.90;;;;;;5070953;28;20109;-53
2023/05/04 07:32:45;;;;;;;7.78;3.25;;;12.80;99.90;;;;;;5073256;28;20032;-62
2023/05/04 07:35:11;;;;;;;7.32;3.00;;;12.90;99.90;;;;;;5069587;28;20031;-59
2023/05/04 07:37:37;;;;;;;10.40;3.47;;;13.00;99.90;;;;;;5068791;28;20070;-58
2023/05/04 07:40:06;;;;;;;6.63;2.65;;;13.10;99.90;;;;;;5068058;28;20420;-55
2023/05/04 07:42:33;;;;;;;10.57;3.05;;;13.20;99.90;;;;;;5070764;28;20062;-56
2023/05/04 07:44:58;;;;;;;7.47;3.50;;;13.30;99.90;;;;;;5072242;28;20456;-57
2023/05/04 07:47:24;;;;;;;10.38;3.65;;;13.30;99.90;;;;;;5066596;28;20048;-56
2023/05/04 07:49:49;;;;;;;8.43;3.08;;;13.30;99.90;;;;;;5068010;28;20391;-61
2023/05/04 07:52:15;;;;;;;8.73;2.83;;;13.40;99.90;;;;;;5070308;28;20032;-55
2023/05/04 07:54:40;;;;;;;9.13;2.60;;;13.50;99.90;;;;;;5071074;28;20032;-60
2023/05/04 07:57:06;;;;;;;3.17;2.70;;;13.60;99.90;;;;;;5069678;28;20055;-57
2023/05/04 07:59:32;;;;;;;9.15;3.10;;;13.70;99.90;;;;;;5066157;28;20031;-57
2023/05/04 08:01:57;;;;;;;8.23;3.05;;;13.90;99.90;;;;;;5060961;28;20377;-59
2023/05/04 08:04:23;;;;;;;9.27;3.03;;;14.00;99.90;;;;;;5072996;28;20075;-58
2023/05/04 08:06:49;;;;;;;8.38;3.25;;;14.10;99.90;;;;;;5069849;28;20039;-60
2023/05/04 08:09:15;;;;;;;9.85;3.35;;;14.10;99.90;;;;;;5067553;28;20036;-59
2023/05/04 08:11:41;;;;;;;4.80;2.88;;;14.30;99.90;;;;;;5071128;28;20037;-61
2023/05/04 08:14:07;;;;;;;3.47;2.60;;;14.40;99.90;;;;;;5069869;28;20150;-62
2023/05/04 08:16:33;;;;;;;12.35;3.47;;;14.50;99.90;;;;;;5073535;28;20032;-61
2023/05/04 08:19:00;;;;;;;8.63;3.55;;;14.60;99.90;;;;;;5069697;28;20043;-58
2023/05/04 08:21:25;;;;;;;12.65;3.42;;;14.60;99.90;;;;;;5070963;28;20020;-60
2023/05/04 08:23:51;;;;;;;11.50;3.33;;;14.80;99.90;;;;;;5074335;28;20036;-56
2023/05/04 08:26:18;;;;;;;10.95;3.50;;;14.90;99.90;;;;;;5065660;28;20024;-60
2023/05/04 08:28:45;;;;;;;8.13;3.55;;;14.90;99.90;;;;;;5059120;28;20484;-56
2023/05/04 08:31:11;;;;;;;7.75;3.67;;;15.00;99.90;;;;;;5064413;28;20526;-62
2023/05/04 08:33:36;;;;;;;8.02;3.20;;;15.10;99.90;;;;;;5069983;28;20021;-60
2023/05/04 08:36:06;;;;;;;6.05;3.28;;;15.20;99.90;;;;;;5070176;28;20043;-59
2023/05/04 08:38:32;;;;;;;8.82;3.80;;;15.40;99.90;;;;;;5071599;28;20032;-59
2023/05/04 08:41:04;;;;;;;9.98;3.70;;;15.60;99.90;;;;;;5068903;28;20041;-58
2023/05/04 08:43:34;;;;;;;8.18;3.40;;;15.80;99.90;;;;;;5070251;28;20028;-57
2023/05/04 08:45:59;;;;;;;9.30;3.10;;;15.90;99.90;;;;;;5067740;28;20193;-55
2023/05/04 08:48:25;;;;;;;5.32;3.30;;;16.00;99.90;;;;;;5063457;28;20442;-57
2023/05/04 08:50:51;;;;;;;4.68;3.55;;;16.10;99.90;;;;;;5071538;28;20061;-55
2023/05/04 08:53:18;;;;;;;12.98;3.75;;;16.20;99.90;;;;;;5068578;28;20159;-58
2023/05/04 08:55:48;;;;;;;8.98;3.60;;;16.40;99.90;;;;;;5058937;28;20025;-56
2023/05/04 08:58:17;;;;;;;8.60;3.90;;;16.50;99.90;;;;;;5063075;28;20029;-56
2023/05/04 09:00:44;;;;;;;8.38;4.25;;;16.60;99.90;;;;;;5069566;28;20036;-59
2023/05/04 09:03:11;;;;;;;9.02;3.80;;;16.80;99.90;;;;;;5059225;28;20036;-54
2023/05/04 09:05:37;;;;;;;10.07;4.50;;;16.80;99.90;;;;;;5068805;28;20065;-56
2023/05/04 09:08:02;;;;;;;10.95;4.10;;;17.00;99.90;;;;;;5068813;28;20028;-60
2023/05/04 09:10:28;;;;;;;8.63;4.50;;;17.00;99.90;;;;;;5066956;28;20051;-63
2023/05/04 09:12:57;;;;;;;7.05;3.85;;;17.20;99.90;;;;;;5074033;28;20028;-61
2023/05/04 09:15:23;;;;;;;8.43;4.05;;;17.40;99.90;;;;;;5068875;28;20039;-62
2023/05/04 09:18:02;;;;;;;8.25;4.40;;;17.60;99.90;;;;;;5065561;28;20544;-60
2023/05/04 09:20:29;;;;;;;7.32;3.90;;;17.60;99.90;;;;;;5063978;28;20028;-59
2023/05/04 09:23:05;;;;;;;8.70;4.55;;;17.80;99.90;;;;;;5063109;28;20029;-60
2023/05/04 09:25:51;;;;;;;9.30;4.32;;;17.90;99.90;;;;;;5069028;28;20036;-61
2023/05/04 09:28:18;;;;;;;10.70;4.22;;;18.10;99.90;;;;;;5065251;28;20020;-60
2023/05/04 09:30:45;;;;;;;10.15;3.63;;;18.20;99.90;;;;;;5073469;28;20429;-57
2023/05/04 09:33:11;;;;;;;15.65;5.13;;;18.30;99.90;;;;;;5069929;28;20035;-55
2023/05/04 09:35:41;;;;;;;9.13;4.22;;;18.50;99.90;;;;;;5066991;28;20127;-60
2023/05/04 09:38:07;;;;;;;14.38;4.78;;;18.60;99.90;;;;;;5056001;28;20056;-58
2023/05/04 09:40:42;;;;;;;9.80;5.22;;;18.80;99.90;;;;;;5061760;28;20087;-59
2023/05/04 09:43:09;;;;;;;7.18;3.85;;;19.00;99.90;;;;;;5069556;28;20032;-60
2023/05/04 09:45:53;;;;;;;7.60;4.25;;;19.10;99.90;;;;;;5063036;28;20086;-58
2023/05/04 09:48:27;;;;;;;8.30;4.18;;;19.10;99.90;;;;;;5060284;28;20403;-62
2023/05/04 09:50:55;;;;;;;5.78;4.20;;;19.10;99.90;;;;;;5065902;28;20484;-58
2023/05/04 09:53:31;;;;;;;14.10;4.18;;;19.20;99.90;;;;;;5064782;28;20025;-57
2023/05/04 09:56:16;;;;;;;6.57;3.85;;;19.30;99.90;;;;;;5068323;28;20151;-57
2023/05/04 09:58:44;;;;;;;8.30;4.07;;;19.70;99.90;;;;;;5057614;28;20024;-59
2023/05/04 10:01:10;;;;;;;11.02;4.30;;;19.90;99.90;;;;;;5072002;28;20029;-56
2023/05/04 10:03:36;;;;;;;12.27;3.83;;;20.00;99.90;;;;;;5067064;28;20450;-56
2023/05/04 10:06:04;;;;;;;5.30;3.65;;;20.30;99.90;;;;;;5061831;28;20024;-59
2023/05/04 10:08:31;;;;;;;5.05;3.60;;;20.60;99.90;;;;;;5066800;28;20032;-56
2023/05/04 10:10:56;;;;;;;7.82;3.80;;;20.60;99.90;;;;;;5066988;28;20496;-54
2023/05/04 10:13:23;;;;;;;5.35;3.50;;;20.80;99.90;;;;;;5066950;28;20032;-60
2023/05/04 10:16:14;;;;;;;10.98;3.67;;;20.80;99.90;;;;;;5066970;28;20024;-55
2023/05/04 10:18:57;;;;;;;12.18;3.60;;;21.00;99.90;;;;;;5071599;28;20516;-60
2023/05/04 10:21:42;;;;;;;8.45;3.67;;;21.30;99.90;;;;;;5066180;28;20029;-52
2023/05/04 10:24:22;;;;;;;8.90;4.05;;;21.40;99.90;;;;;;5062433;28;20028;-59
2023/05/04 10:27:11;;;;;;;6.43;4.10;;;21.60;99.90;;;;;;5066094;28;20570;-59
2023/05/04 10:29:37;;;;;;;5.32;3.00;;;21.90;99.00;;;;;;5073130;28;20032;-56
2023/05/04 10:32:03;;;;;;;6.70;3.55;;;22.10;98.60;;;;;;5064835;28;20036;-54
2023/05/04 10:34:31;;;;;;;11.18;3.72;;;22.10;98.60;;;;;;5066152;28;20093;-60
2023/05/04 10:36:58;;;;;;;4.88;3.15;;;22.30;99.40;;;;;;5065673;28;20107;-57
2023/05/04 10:39:26;;;;;;;4.95;3.67;;;22.40;97.90;;;;;;5065914;28;20029;-58
2023/05/04 10:42:03;;;;;;;9.52;3.83;;;22.50;95.40;;;;;;5069469;28;20024;-55
2023/05/04 10:44:30;;;;;;;8.23;3.28;;;22.50;95.40;;;;;;5061282;28;20029;-56
2023/05/04 10:46:58;;;;;;;7.10;2.92;;;22.50;94.50;;;;;;5062912;28;20103;-60
2023/05/04 10:49:23;;;;;;;8.65;3.63;;;22.60;94.00;;;;;;5063689;28;20033;-60
2023/05/04 10:51:50;;;;;;;5.82;3.90;;;22.80;95.60;;;;;;5065644;28;20038;-62
2023/05/04 10:54:17;;;;;;;7.90;3.35;;;22.70;93.40;;;;;;5071346;28;20013;-58
2023/05/04 10:56:43;;;;;;;6.32;2.97;;;23.00;93.90;;;;;;5066808;28;20094;-58
2023/05/04 10:59:09;;;;;;;8.50;2.70;;;23.20;94.30;;;;;;5063849;28;20508;-59
2023/05/04 11:01:44;;;;;;;9.48;3.05;;;23.30;93.40;;;;;;5063906;28;20029;-58
2023/05/04 11:04:20;;;;;;;8.35;2.88;;;23.40;93.20;;;;;;5061810;28;20021;-61
2023/05/04 11:06:59;;;;;;;7.00;3.53;;;23.50;91.60;;;;;;5065086;28;20036;-56
2023/05/04 11:09:26;;;;;;;6.82;2.42;;;23.40;94.30;;;;;;5068359;28;20476;-60
2023/05/04 11:11:53;;;;;;;4.15;2.80;;;23.50;91.00;;;;;;5064720;28;20035;-54
2023/05/04 11:14:27;;;;;;;4.35;3.00;;;23.60;94.70;;;;;;5069331;28;20121;-58
2023/05/04 11:17:06;;;;;;;8.68;2.70;;;23.70;91.80;;;;;;5069850;28;20024;-53
2023/05/04 11:19:33;;;;;;;4.18;2.53;;;23.80;91.20;;;;;;5065444;28;20032;-58
2023/05/04 11:22:02;;;;;;;6.45;2.92;;;23.70;92.40;;;;;;5064212;28;20044;-54
2023/05/04 11:24:41;;;;;;;8.00;2.95;;;24.00;90.90;;;;;;5070514;28;20028;-55
2023/05/04 11:27:07;;;;;;;5.80;2.70;;;24.10;91.40;;;;;;5067491;28;20036;-55
2023/05/04 11:29:33;;;;;;;6.43;2.85;;;24.30;88.90;;;;;;5060774;28;20025;-54
2023/05/04 11:31:58;;;;;;;5.15;2.75;;;24.40;88.60;;;;;;5064025;28;20732;-54
2023/05/04 11:34:24;;;;;;;4.55;2.78;;;24.50;88.80;;;;;;5069505;28;20031;-63
2023/05/04 11:36:49;;;;;;;7.47;2.97;;;24.80;86.10;;;;;;5067000;28;20036;-53
2023/05/04 11:39:16;;;;;;;3.80;2.70;;;24.90;87.10;;;;;;5062150;28;20502;-54
2023/05/04 11:41:43;;;;;;;5.47;3.03;;;25.00;85.00;;;;;;5064649;28;20035;-58
2023/05/04 11:44:09;;;;;;;8.02;3.40;;;24.90;78.70;;;;;;5066273;28;20032;-58
2023/05/04 11:46:35;;;;;;;4.38;2.60;;;24.30;79.60;;;;;;5066975;28;20035;-60
2023/05/04 11:49:02;;;;;;;9.82;3.03;;;24.40;82.90;;;;;;5060891;28;20033;-61
2023/05/04 11:51:28;;;;;;;4.75;3.03;;;24.40;90.20;;;;;;5058030;28;20033;-59
2023/05/04 11:53:54;;;;;;;5.28;2.58;;;24.60;85.80;;;;;;5059426;28;20517;-62
2023/05/04 11:56:20;;;;;;;5.70;2.40;;;24.60;86.70;;;;;;5065955;28;20028;-55
2023/05/04 11:58:46;;;;;;;5.40;2.97;;;24.70;88.90;;;;;;5065637;28;20017;-59
2023/05/04 12:01:11;;;;;;;5.00;2.47;;;24.80;88.60;;;;;;5068597;28;20032;-60
2023/05/04 12:03:38;;;;;;;8.57;3.05;;;24.90;83.50;;;;;;5065752;28;20103;-58
2023/05/04 12:06:05;;;;;;;7.72;2.70;;;24.90;84.00;;;;;;5061462;28;20510;-58
2023/05/04 12:08:40;;;;;;;7.70;2.67;;;25.00;82.90;;;;;;5063827;28;20108;-58
2023/05/04 12:11:23;;;;;;;4.75;2.50;;;25.10;79.20;;;;;;5067353;28;20054;-57
2023/05/04 12:14:08;;;;;;;5.70;2.78;;;25.20;79.60;;;;;;5068841;28;20024;-58
2023/05/04 12:16:34;;;;;;;;;;;25.20;85.30;;;;;;5066255;28;20488;-58
2023/05/04 12:19:07;;;;;;;5.68;2.50;;;25.50;77.10;;;;;;5061472;28;19908;-59
2023/05/04 12:21:34;;;;;;;8.57;2.95;;;25.50;77.60;;;;;;5064815;28;20031;-59
2023/05/04 12:24:02;;;;;;;4.10;2.20;;;25.50;84.40;;;;;;5067284;28;20052;-56
2023/05/04 12:26:28;;;;;;;14.10;2.22;;;25.70;76.40;;;;;;5066017;28;20060;-55
2023/05/04 12:28:55;;;;;;;6.03;2.92;;;25.70;78.50;;;;;;5061748;28;20021;-60
2023/05/04 12:31:21;;;;;;;5.15;2.25;;;25.70;85.60;;;;;;5066376;28;20044;-55
2023/05/04 12:33:47;;;;;;;4.55;2.25;;;25.80;82.40;;;;;;5064712;28;20408;-58
2023/05/04 12:36:13;;;;;;;5.22;1.90;;;25.80;80.70;;;;;;5065870;28;20133;-53
2023/05/04 12:38:38;;;;;;;6.55;2.22;;;26.10;79.40;;;;;;5064859;28;20528;-58
2023/05/04 12:41:06;;;;;;;4.93;2.42;;;26.30;80.20;;;;;;5064630;28;20028;-57
2023/05/04 12:43:32;;;;;;;2.88;2.35;;;26.10;82.00;;;;;;5066584;28;20043;-53
2023/05/04 12:45:58;;;;;;;6.72;2.80;;;26.20;80.00;;;;;;5073801;28;20485;-56
2023/05/04 12:48:25;;;;;;;8.00;2.45;;;26.20;80.00;;;;;;5064926;28;20234;-55
2023/05/04 12:50:51;;;;;;;3.78;2.40;;;26.50;77.10;;;;;;5063706;28;20036;-52